createdAt,value
2023-01-03T00:01:22.427Z,21.58
2023-01-03T00:05:24.959Z,26.83
2023-01-03T00:09:27.197Z,26.92
2023-01-03T00:13:29.272Z,24.15
2023-01-03T00:17:31.660Z,26.45
2023-01-03T00:21:34.279Z,20.40
2023-01-03T00:25:36.435Z,20.02
2023-01-03T00:29:39.153Z,19.40
2023-01-03T00:33:41.317Z,18.70
2023-01-03T00:37:43.440Z,18.20
2023-01-03T00:41:45.556Z,18.10
2023-01-03T00:45:47.685Z,16.13
2023-01-03T00:49:49.825Z,16.45
2023-01-03T00:53:55.305Z,15.63
2023-01-03T00:57:57.409Z,16.05
2023-01-03T01:01:59.687Z,15.55
2023-01-03T01:06:30.329Z,16.67
2023-01-03T01:10:33.100Z,15.10
2023-01-03T01:14:36.111Z,15.85
2023-01-03T01:18:39.483Z,15.05
2023-01-03T01:22:41.625Z,16.17
2023-01-03T01:26:44.167Z,15.70
2023-01-03T01:30:46.454Z,17.13
2023-01-03T01:34:49.292Z,15.98
2023-01-03T01:39:03.897Z,15.68
2023-01-03T01:43:45.305Z,17.75
2023-01-03T01:47:59.976Z,17.58
2023-01-03T01:56:10.938Z,18.63
2023-01-03T02:00:14.383Z,18.25
2023-01-03T02:04:24.898Z,16.63
2023-01-03T02:08:27.223Z,16.00
2023-01-03T02:13:01.494Z,15.98
2023-01-03T02:17:12.751Z,16.30
2023-01-03T02:21:19.769Z,16.92
2023-01-03T02:25:40.565Z,16.48
2023-01-03T02:30:10.653Z,16.50
2023-01-03T02:34:29.650Z,17.05
2023-01-03T02:38:34.842Z,17.13
2023-01-03T02:42:58.731Z,18.48
2023-01-03T02:47:07.091Z,17.33
2023-01-03T02:51:35.341Z,17.63
2023-01-03T02:55:39.590Z,16.70
2023-01-03T02:59:54.868Z,16.20
2023-01-03T03:03:58.773Z,16.48
2023-01-03T03:08:04.503Z,15.27
2023-01-03T03:12:27.494Z,16.67
2023-01-03T03:16:49.296Z,16.45
2023-01-03T03:21:15.058Z,16.05
2023-01-03T03:25:34.619Z,16.27
2023-01-03T03:29:38.140Z,15.68
2023-01-03T03:34:30.674Z,15.95
2023-01-03T03:38:40.886Z,15.90
2023-01-03T03:43:27.251Z,15.75
2023-01-03T03:47:35.548Z,14.60
2023-01-03T03:51:41.230Z,15.20
2023-01-03T03:55:49.810Z,15.40
2023-01-03T03:59:58.038Z,15.40
2023-01-03T04:04:06.109Z,15.82
2023-01-03T04:08:08.790Z,14.95
2023-01-03T04:12:11.237Z,15.05
2023-01-03T04:16:15.665Z,15.70
2023-01-03T04:20:19.357Z,15.63
2023-01-03T04:24:22.407Z,16.48
2023-01-03T04:28:32.491Z,16.20
2023-01-03T04:32:38.125Z,15.40
2023-01-03T04:36:40.631Z,16.08
2023-01-03T04:40:43.112Z,16.95
2023-01-03T04:44:45.722Z,15.00
2023-01-03T04:48:48.544Z,15.23
2023-01-03T04:52:50.833Z,16.10
2023-01-03T04:56:53.296Z,15.98
2023-01-03T05:01:03.423Z,15.80
2023-01-03T05:05:10.481Z,15.75
2023-01-03T05:09:15.728Z,15.05
2023-01-03T05:13:18.151Z,15.55
2023-01-03T05:17:21.315Z,16.02
2023-01-03T05:21:42.083Z,16.63
2023-01-03T05:25:50.666Z,15.85
2023-01-03T05:29:54.094Z,15.30
2023-01-03T05:33:57.113Z,15.38
2023-01-03T05:37:59.386Z,14.93
2023-01-03T05:42:01.672Z,15.10
2023-01-03T05:46:06.216Z,15.07
2023-01-03T05:50:08.674Z,15.98
2023-01-03T05:54:18.872Z,17.48
2023-01-03T05:58:21.988Z,17.55
2023-01-03T06:02:24.338Z,18.48
2023-01-03T06:06:26.795Z,17.95
2023-01-03T06:10:29.816Z,17.05
2023-01-03T06:19:16.661Z,17.00
2023-01-03T06:23:18.836Z,19.00
2023-01-03T06:27:21.058Z,17.38
2023-01-03T06:31:23.347Z,17.70
2023-01-03T06:35:25.651Z,16.20
2023-01-03T06:39:27.855Z,16.33
2023-01-03T06:43:30.311Z,17.02
2023-01-03T06:47:51.161Z,17.05
2023-01-03T06:52:11.845Z,15.88
2023-01-03T06:56:14.009Z,16.13
2023-01-03T07:00:16.989Z,17.60
2023-01-03T07:04:21.057Z,18.30
2023-01-03T07:08:23.372Z,18.48
2023-01-03T07:12:44.106Z,17.27
2023-01-03T07:16:48.220Z,20.05
2023-01-03T07:20:50.457Z,18.85
2023-01-03T07:24:52.699Z,18.23
2023-01-03T07:28:54.905Z,19.08
2023-01-03T07:32:57.040Z,17.67
2023-01-03T07:36:59.315Z,16.48
2023-01-03T07:41:03.153Z,16.15
2023-01-03T07:45:05.999Z,17.95
2023-01-03T07:49:11.938Z,18.13
2023-01-03T07:53:17.090Z,18.23
2023-01-03T07:57:19.480Z,18.75
2023-01-03T08:01:23.719Z,19.67
2023-01-03T08:05:27.579Z,19.33
2023-01-03T08:09:48.261Z,19.38
2023-01-03T08:13:50.445Z,19.13
2023-01-03T08:17:52.866Z,22.40
2023-01-03T08:21:55.069Z,20.52
2023-01-03T08:26:11.211Z,19.80
2023-01-03T08:30:14.610Z,19.58
2023-01-03T08:34:25.374Z,19.65
2023-01-03T08:38:39.380Z,19.60
2023-01-03T08:42:42.590Z,21.52
2023-01-03T08:46:49.903Z,19.88
2023-01-03T08:50:52.364Z,21.50
2023-01-03T08:54:54.541Z,20.17
2023-01-03T08:58:59.619Z,19.17
2023-01-03T09:03:01.931Z,18.27
2023-01-03T09:07:04.361Z,17.77
2023-01-03T09:11:07.227Z,16.25
2023-01-03T09:15:09.759Z,16.63
2023-01-03T09:19:12.032Z,17.38
2023-01-03T09:23:14.178Z,16.63
2023-01-03T09:27:16.599Z,15.70
2023-01-03T09:31:19.035Z,15.80
2023-01-03T09:35:21.238Z,15.82
2023-01-03T09:39:23.394Z,14.88
2023-01-03T09:43:34.923Z,16.25
2023-01-03T09:47:39.008Z,14.98
2023-01-03T09:52:04.707Z,14.32
2023-01-03T09:56:30.199Z,15.25
2023-01-03T10:01:06.869Z,14.07
2023-01-03T10:05:17.533Z,14.20
2023-01-03T10:09:31.713Z,13.75
2023-01-03T10:14:11.109Z,13.25
2023-01-03T10:18:16.296Z,14.15
2023-01-03T10:22:23.201Z,14.35
2023-01-03T10:26:32.570Z,15.02
2023-01-03T10:31:08.589Z,13.68
2023-01-03T10:35:30.184Z,14.32
2023-01-03T10:39:32.971Z,13.95
2023-01-03T10:43:46.219Z,13.65
2023-01-03T10:48:00.651Z,13.82
2023-01-03T10:52:20.072Z,11.77
2023-01-03T10:56:24.767Z,12.68
2023-01-03T11:00:39.447Z,12.95
2023-01-03T11:04:45.490Z,12.73
2023-01-03T11:09:01.889Z,12.93
2023-01-03T11:13:33.632Z,12.60
2023-01-03T11:17:39.528Z,12.68
2023-01-03T11:22:04.200Z,12.48
2023-01-03T11:26:37.686Z,10.82
2023-01-03T11:31:09.551Z,11.25
2023-01-03T11:35:45.849Z,12.10
2023-01-03T11:40:19.012Z,9.88
2023-01-03T11:44:43.664Z,10.88
2023-01-03T11:49:06.663Z,10.45
2023-01-03T11:53:13.921Z,11.32
2023-01-03T11:57:53.315Z,10.85
2023-01-03T12:02:41.266Z,9.35
2023-01-03T12:11:56.072Z,10.85
2023-01-03T12:16:34.748Z,12.20
2023-01-03T12:20:44.118Z,10.50
2023-01-03T12:25:05.047Z,11.55
2023-01-03T12:29:24.593Z,9.35
2023-01-03T12:33:40.373Z,9.85
2023-01-03T12:37:50.633Z,11.93
2023-01-03T12:42:02.192Z,10.48
2023-01-03T12:46:25.559Z,10.52
2023-01-03T12:50:33.977Z,11.43
2023-01-03T12:55:11.917Z,11.90
2023-01-03T12:59:39.536Z,11.15
2023-01-03T13:03:54.646Z,11.63
2023-01-03T13:08:34.677Z,12.18
2023-01-03T13:12:42.740Z,11.40
2023-01-03T13:16:53.617Z,12.02
2023-01-03T13:20:56.911Z,13.13
2023-01-03T13:25:36.285Z,12.55
2023-01-03T13:29:49.620Z,12.70
2023-01-03T13:33:56.594Z,13.20
2023-01-03T13:38:20.978Z,12.95
2023-01-03T13:42:31.565Z,13.02
2023-01-03T13:46:35.047Z,12.18
2023-01-03T13:50:39.136Z,12.43
2023-01-03T13:54:59.388Z,12.25
2023-01-03T13:59:34.585Z,12.07
2023-01-03T14:04:01.643Z,11.52
2023-01-03T14:08:41.097Z,10.50
2023-01-03T14:13:02.791Z,10.75
2023-01-03T14:17:15.717Z,12.30
2023-01-03T14:21:27.951Z,11.73
2023-01-03T14:25:37.733Z,11.73
2023-01-03T14:29:43.705Z,11.00
2023-01-03T14:33:53.141Z,11.80
2023-01-03T14:38:00.613Z,11.70
2023-01-03T14:42:14.288Z,12.35
2023-01-03T14:46:19.394Z,11.85
2023-01-03T14:50:34.747Z,11.40
2023-01-03T14:54:39.358Z,11.45
2023-01-03T14:58:47.497Z,11.05
2023-01-03T15:02:54.329Z,11.77
2023-01-03T15:07:11.261Z,12.23
2023-01-03T15:11:23.871Z,11.60
2023-01-03T15:15:40.381Z,12.20
2023-01-03T15:19:54.557Z,11.43
2023-01-03T15:23:58.995Z,11.82
2023-01-03T15:32:24.222Z,12.75
2023-01-03T15:36:31.077Z,12.52
2023-01-03T15:40:33.928Z,20.15
2023-01-03T15:44:36.596Z,15.07
2023-01-03T15:48:39.830Z,15.43
2023-01-03T15:52:42.449Z,16.30
2023-01-03T15:57:01.480Z,15.40
2023-01-03T16:01:04.925Z,17.00
2023-01-03T16:05:19.564Z,26.88
2023-01-03T16:09:24.369Z,21.60
2023-01-03T16:13:29.564Z,25.00
2023-01-03T16:17:34.143Z,18.88
2023-01-03T16:21:36.733Z,18.23
2023-01-03T16:25:42.429Z,17.35
2023-01-03T16:29:45.027Z,15.85
2023-01-03T16:33:52.022Z,15.70
2023-01-03T16:37:54.557Z,16.40
2023-01-03T16:42:15.433Z,15.55
2023-01-03T16:46:21.304Z,17.00
2023-01-03T16:50:24.022Z,16.60
2023-01-03T16:54:27.385Z,16.70
2023-01-03T16:58:31.227Z,18.95
2023-01-03T17:02:33.894Z,26.17
2023-01-03T17:06:38.637Z,21.27
2023-01-03T17:10:42.289Z,21.67
2023-01-03T17:14:46.475Z,26.58
2023-01-03T17:18:49.319Z,24.88
2023-01-03T17:22:58.094Z,22.55
2023-01-03T17:27:04.790Z,19.70
2023-01-03T17:31:09.798Z,22.05
2023-01-03T17:35:14.300Z,15.82
2023-01-03T17:39:16.701Z,16.05
2023-01-03T17:43:22.476Z,17.83
